createdAt,value
2018-06-08T00:00:50.195Z,97.60
2018-06-08T00:03:18.103Z,97.60
2018-06-08T00:05:46.039Z,97.60
2018-06-08T00:08:14.104Z,97.50
2018-06-08T00:10:42.069Z,97.50
2018-06-08T00:13:10.038Z,97.50
2018-06-08T00:20:33.652Z,97.70
2018-06-08T00:23:01.591Z,97.60
2018-06-08T00:25:29.575Z,97.70
2018-06-08T00:27:57.452Z,97.70
2018-06-08T00:30:25.428Z,97.50
2018-06-08T00:32:53.378Z,97.50
2018-06-08T00:35:21.353Z,97.40
2018-06-08T00:37:49.231Z,97.40
2018-06-08T00:40:17.180Z,97.50
2018-06-08T00:42:45.052Z,97.50
2018-06-08T00:45:13.042Z,97.50
2018-06-08T00:47:40.896Z,97.50
2018-06-08T00:50:08.869Z,97.40
2018-06-08T00:52:37.146Z,97.50
2018-06-08T00:55:05.624Z,97.50
2018-06-08T00:57:33.578Z,97.60
2018-06-08T01:02:26.755Z,97.70
2018-06-08T01:05:29.724Z,97.70
2018-06-08T01:07:58.737Z,97.70
2018-06-08T01:10:26.750Z,97.50
2018-06-08T01:12:55.077Z,97.50
2018-06-08T01:15:23.139Z,97.50
2018-06-08T01:17:52.165Z,97.50
2018-06-08T01:20:20.086Z,97.50
2018-06-08T01:22:48.034Z,97.50
2018-06-08T01:25:15.949Z,97.50
2018-06-08T01:27:43.919Z,97.50
2018-06-08T01:30:12.170Z,97.60
2018-06-08T01:32:40.074Z,97.40
2018-06-08T01:35:08.139Z,97.60
2018-06-08T01:37:36.032Z,97.40
2018-06-08T01:40:04.014Z,97.50
2018-06-08T01:42:32.306Z,97.40
2018-06-08T01:45:00.330Z,97.50
2018-06-08T01:47:28.263Z,97.40
2018-06-08T01:49:56.497Z,97.50
2018-06-08T01:52:24.389Z,97.50
2018-06-08T01:54:52.622Z,97.50
2018-06-08T01:57:20.512Z,97.80
2018-06-08T01:59:48.398Z,97.40
2018-06-08T02:03:05.279Z,97.50
2018-06-08T02:05:33.217Z,97.40
2018-06-08T02:08:01.014Z,97.40
2018-06-08T02:20:29.175Z,97.30
2018-06-08T02:22:57.124Z,97.20
2018-06-08T02:25:25.186Z,97.40
2018-06-08T02:27:53.097Z,97.40
2018-06-08T02:32:50.825Z,97.40
2018-06-08T02:35:34.153Z,97.40
2018-06-08T02:38:02.103Z,97.50
2018-06-08T02:40:31.240Z,97.50
2018-06-08T02:42:59.179Z,97.50
2018-06-08T02:45:27.119Z,97.50
2018-06-08T02:47:55.064Z,97.50
2018-06-08T02:50:23.065Z,97.50
2018-06-08T02:52:50.984Z,97.60
2018-06-08T02:55:18.980Z,97.60
2018-06-08T02:57:46.904Z,97.60
2018-06-08T03:00:14.858Z,97.70
2018-06-08T03:02:42.762Z,97.70
2018-06-08T03:05:12.743Z,97.70
2018-06-08T03:07:40.619Z,97.80
2018-06-08T03:10:08.589Z,97.50
2018-06-08T03:12:36.472Z,97.40
2018-06-08T03:15:07.906Z,97.50
2018-06-08T03:17:35.782Z,97.60
2018-06-08T03:20:18.312Z,97.80
2018-06-08T03:22:46.342Z,97.80
2018-06-08T03:25:14.384Z,97.80
2018-06-08T03:27:42.437Z,97.70
2018-06-08T03:30:10.259Z,97.70
2018-06-08T03:32:38.175Z,97.70
2018-06-08T03:35:05.961Z,97.80
2018-06-08T03:37:33.693Z,97.70
2018-06-08T03:40:02.940Z,97.90
2018-06-08T03:42:30.876Z,97.90
2018-06-08T03:44:58.680Z,97.80
2018-06-08T03:47:26.572Z,97.80
2018-06-08T03:49:54.340Z,97.60
2018-06-08T03:52:22.114Z,97.90
2018-06-08T03:54:49.985Z,97.80
2018-06-08T03:59:45.506Z,97.50
2018-06-08T04:02:37.694Z,97.50
2018-06-08T04:05:05.529Z,97.40
2018-06-08T04:07:33.511Z,97.50
2018-06-08T04:10:01.341Z,97.50
2018-06-08T04:12:29.145Z,97.40
2018-06-08T04:14:56.916Z,97.40
2018-06-08T04:19:52.424Z,97.30
2018-06-08T04:22:20.305Z,97.40
2018-06-08T04:24:48.166Z,97.40
2018-06-08T04:27:15.902Z,97.30
2018-06-08T04:29:43.661Z,97.30
2018-06-08T04:32:11.563Z,97.40
2018-06-08T04:35:04.622Z,97.40
2018-06-08T04:37:32.553Z,97.40
2018-06-08T04:40:05.564Z,97.40
2018-06-08T04:42:33.454Z,97.40
2018-06-08T04:45:04.954Z,97.50
2018-06-08T04:47:32.878Z,97.40
2018-06-08T04:50:00.594Z,97.80
2018-06-08T04:54:55.984Z,97.40
2018-06-08T04:57:23.699Z,97.40
2018-06-08T04:59:51.456Z,97.30
2018-06-08T05:02:19.270Z,97.10
2018-06-08T05:04:47.017Z,97.20
2018-06-08T05:07:14.754Z,97.30
2018-06-08T05:09:42.570Z,97.30
2018-06-08T05:12:10.498Z,97.30
2018-06-08T05:14:38.238Z,97.30
2018-06-08T05:17:06.011Z,97.40
2018-06-08T05:19:33.760Z,97.30
2018-06-08T05:22:01.564Z,97.20
2018-06-08T05:24:29.340Z,97.10
2018-06-08T05:26:57.077Z,97.30
2018-06-08T05:29:25.074Z,97.10
2018-06-08T05:31:52.882Z,97.10
2018-06-08T05:34:20.924Z,97.10
2018-06-08T05:36:48.639Z,97.20
2018-06-08T05:39:16.783Z,97.10
2018-06-08T05:41:44.677Z,97.20
2018-06-08T05:44:28.686Z,97.10
2018-06-08T05:46:56.520Z,97.10
2018-06-08T05:49:24.325Z,96.90
2018-06-08T05:51:52.155Z,97.00
2018-06-08T05:54:20.141Z,97.00
2018-06-08T05:56:47.933Z,97.10
2018-06-08T05:59:15.871Z,97.10
2018-06-08T06:01:43.931Z,97.10
2018-06-08T06:06:40.162Z,97.10
2018-06-08T06:09:08.820Z,96.70
2018-06-08T06:11:37.060Z,96.70
2018-06-08T06:14:06.081Z,96.70
2018-06-08T06:16:34.031Z,96.70
2018-06-08T06:19:01.848Z,96.60
2018-06-08T06:21:29.629Z,96.50
2018-06-08T06:23:57.434Z,96.30
2018-06-08T06:26:25.239Z,96.30
2018-06-08T06:28:53.177Z,96.10
2018-06-08T06:31:21.028Z,96.20
2018-06-08T06:33:48.956Z,96.20
2018-06-08T06:36:17.968Z,96.30
2018-06-08T06:38:46.039Z,96.40
2018-06-08T06:41:13.889Z,96.40
2018-06-08T06:46:11.288Z,96.30
2018-06-08T06:48:40.680Z,96.00
2018-06-08T06:51:10.345Z,96.00
2018-06-08T06:56:03.838Z,95.70
2018-06-08T06:58:31.692Z,95.70
2018-06-08T07:00:59.532Z,95.20
2018-06-08T07:03:27.418Z,95.10
2018-06-08T07:05:55.279Z,94.80
2018-06-08T07:08:23.148Z,94.80
2018-06-08T07:10:51.011Z,95.10
2018-06-08T07:13:20.010Z,95.00
2018-06-08T07:15:48.129Z,95.20
2018-06-08T07:18:16.132Z,95.20
2018-06-08T07:20:43.966Z,95.10
2018-06-08T07:23:11.878Z,94.80
2018-06-08T07:25:40.205Z,95.30
2018-06-08T07:28:08.107Z,95.40
2018-06-08T07:30:35.995Z,95.00
2018-06-08T07:33:04.180Z,94.70
2018-06-08T07:35:32.226Z,94.70
2018-06-08T07:38:02.005Z,94.70
2018-06-08T07:40:29.993Z,94.70
2018-06-08T07:42:58.034Z,94.50
2018-06-08T07:47:53.864Z,93.10
2018-06-08T07:50:21.855Z,93.10
2018-06-08T07:52:56.007Z,92.90
2018-06-08T07:55:32.895Z,92.20
2018-06-08T07:58:01.260Z,91.90
2018-06-08T08:00:29.138Z,91.80
2018-06-08T08:02:57.081Z,92.10
2018-06-08T08:05:25.278Z,91.80
2018-06-08T08:07:53.277Z,92.00
2018-06-08T08:10:21.488Z,92.10
2018-06-08T08:12:49.611Z,91.00
2018-06-08T08:15:17.752Z,91.50
2018-06-08T08:17:45.840Z,90.90
2018-06-08T08:20:13.736Z,91.00
2018-06-08T08:22:41.942Z,91.30
2018-06-08T08:25:09.830Z,91.00
2018-06-08T08:27:37.946Z,91.10
2018-06-08T08:30:05.979Z,90.80
2018-06-08T08:32:33.944Z,90.50
2018-06-08T08:35:02.113Z,90.90
2018-06-08T08:37:30.144Z,90.20
2018-06-08T08:39:58.295Z,90.40
2018-06-08T08:42:26.510Z,90.40
2018-06-08T08:44:54.590Z,89.30
2018-06-08T08:47:22.674Z,88.40
2018-06-08T08:49:50.624Z,88.40
2018-06-08T08:52:19.023Z,87.60
2018-06-08T08:54:47.199Z,87.50
2018-06-08T08:57:15.201Z,87.80
2018-06-08T09:02:11.740Z,84.10
2018-06-08T09:04:39.555Z,82.40
2018-06-08T09:07:07.454Z,81.80
2018-06-08T09:09:35.314Z,77.70
2018-06-08T09:12:03.146Z,77.70
2018-06-08T09:14:31.061Z,79.80
2018-06-08T09:19:26.598Z,78.40
2018-06-08T09:21:54.476Z,79.30
2018-06-08T09:24:22.525Z,76.40
2018-06-08T09:26:50.471Z,75.90
2018-06-08T09:29:18.292Z,73.20
2018-06-08T09:31:46.353Z,74.70
2018-06-08T09:34:14.566Z,71.80
2018-06-08T09:36:42.637Z,72.90
2018-06-08T09:39:10.422Z,70.90
2018-06-08T09:41:40.426Z,70.90
2018-06-08T09:44:08.221Z,71.70
2018-06-08T09:46:36.122Z,70.70
2018-06-08T09:49:04.921Z,70.30
2018-06-08T09:51:32.905Z,71.90
2018-06-08T09:54:00.723Z,71.10
2018-06-08T09:56:36.942Z,72.20
2018-06-08T09:59:04.974Z,69.70
2018-06-08T10:01:32.939Z,67.60
2018-06-08T10:04:00.859Z,69.70
2018-06-08T10:06:28.871Z,74.80
2018-06-08T10:08:56.710Z,74.40
2018-06-08T10:11:24.593Z,73.20
2018-06-08T10:13:52.401Z,73.90
2018-06-08T10:16:20.157Z,75.10
2018-06-08T10:18:47.941Z,74.50
2018-06-08T10:21:15.637Z,75.40
2018-06-08T10:23:43.440Z,76.40
2018-06-08T10:26:12.223Z,76.70
2018-06-08T10:28:40.078Z,77.60
2018-06-08T10:31:07.930Z,78.40
2018-06-08T10:33:36.245Z,76.60
2018-06-08T10:36:04.535Z,79.50
2018-06-08T10:38:33.328Z,79.00
2018-06-08T10:41:01.138Z,78.60
2018-06-08T10:43:28.955Z,79.10
2018-06-08T10:45:56.760Z,78.30
2018-06-08T10:48:24.614Z,75.60
2018-06-08T10:50:52.451Z,76.00
2018-06-08T10:53:21.241Z,75.30
2018-06-08T10:55:49.087Z,75.20
2018-06-08T10:58:16.936Z,74.80
2018-06-08T11:00:44.776Z,75.20
2018-06-08T11:03:26.187Z,75.50
2018-06-08T11:06:07.096Z,76.10
2018-06-08T11:08:34.947Z,75.60
2018-06-08T11:11:04.652Z,75.50
2018-06-08T11:13:36.444Z,74.10
2018-06-08T11:16:04.761Z,75.50
2018-06-08T11:18:32.669Z,74.30
2018-06-08T11:21:00.434Z,75.50
2018-06-08T11:23:28.610Z,74.60
2018-06-08T11:25:56.535Z,74.50
2018-06-08T11:28:24.329Z,75.60
2018-06-08T11:30:52.106Z,75.70
2018-06-08T11:33:19.878Z,74.80
2018-06-08T11:35:47.638Z,73.60
2018-06-08T11:38:15.370Z,73.60
2018-06-08T11:40:43.203Z,71.90
2018-06-08T11:43:11.030Z,70.40
2018-06-08T11:45:38.827Z,69.70
2018-06-08T11:48:06.611Z,71.80
2018-06-08T11:50:34.392Z,72.00
2018-06-08T11:53:02.177Z,70.60
2018-06-08T11:55:29.986Z,71.20
2018-06-08T11:57:57.761Z,67.20
2018-06-08T12:00:25.612Z,66.90
2018-06-08T12:02:53.377Z,67.80
2018-06-08T12:05:21.134Z,64.70
2018-06-08T12:07:48.923Z,65.00
2018-06-08T12:10:16.675Z,64.50
2018-06-08T12:12:44.461Z,63.10
2018-06-08T12:15:12.253Z,61.60
2018-06-08T12:17:40.089Z,62.70
2018-06-08T12:20:07.924Z,64.20
2018-06-08T12:22:35.713Z,63.50
2018-06-08T12:25:03.507Z,65.10
2018-06-08T12:27:31.288Z,64.10
2018-06-08T12:29:59.050Z,64.20
2018-06-08T12:32:27.139Z,62.50
2018-06-08T12:34:55.271Z,64.40
2018-06-08T12:37:23.191Z,66.00
2018-06-08T12:39:52.055Z,65.30
2018-06-08T12:42:19.890Z,63.90
2018-06-08T12:44:48.811Z,63.50
2018-06-08T12:47:16.593Z,64.70
2018-06-08T12:49:44.496Z,63.70
2018-06-08T12:52:12.326Z,66.00
2018-06-08T12:54:40.283Z,64.70
2018-06-08T12:57:08.149Z,65.30
2018-06-08T12:59:36.116Z,64.50
2018-06-08T13:02:03.972Z,63.70
2018-06-08T13:04:31.966Z,62.00
2018-06-08T13:06:59.911Z,61.60
2018-06-08T13:09:27.737Z,61.40
2018-06-08T13:11:55.514Z,64.50
2018-06-08T13:14:23.422Z,65.90
2018-06-08T13:16:51.208Z,65.50
2018-06-08T13:19:19.067Z,66.60
2018-06-08T13:21:47.191Z,66.80
2018-06-08T13:24:15.214Z,65.90
2018-06-08T13:26:44.017Z,65.00
2018-06-08T13:29:11.758Z,62.20
2018-06-08T13:31:39.699Z,60.40
2018-06-08T13:34:07.447Z,62.80
2018-06-08T13:36:35.243Z,63.00
2018-06-08T13:39:05.058Z,60.60
2018-06-08T13:41:33.049Z,63.60
2018-06-08T13:44:11.361Z,62.40
2018-06-08T13:49:08.597Z,62.40
2018-06-08T13:51:37.502Z,60.80
2018-06-08T13:54:05.424Z,60.80
2018-06-08T13:56:33.346Z,60.00
2018-06-08T13:59:01.331Z,62.50
2018-06-08T14:01:29.133Z,61.70
2018-06-08T14:03:57.024Z,61.30
2018-06-08T14:06:25.713Z,60.60
2018-06-08T14:08:53.638Z,60.10
2018-06-08T14:11:21.416Z,61.10
2018-06-08T14:14:05.376Z,61.70
2018-06-08T14:16:33.512Z,63.60
2018-06-08T14:19:02.300Z,66.40
2018-06-08T14:21:30.149Z,65.20
2018-06-08T14:23:57.935Z,64.60
2018-06-08T14:26:25.739Z,62.10
2018-06-08T14:28:53.516Z,61.30
2018-06-08T14:31:21.438Z,61.80
2018-06-08T14:33:49.256Z,64.40
2018-06-08T14:36:17.041Z,63.90
2018-06-08T14:38:44.908Z,63.30
2018-06-08T14:41:12.678Z,63.30
2018-06-08T14:43:41.698Z,64.60
2018-06-08T14:46:09.479Z,64.90
2018-06-08T14:48:37.403Z,62.30
2018-06-08T14:51:05.883Z,63.90
2018-06-08T14:53:34.835Z,65.20
2018-06-08T14:56:03.998Z,66.00
2018-06-08T14:58:33.085Z,67.90
2018-06-08T15:01:02.028Z,67.90
2018-06-08T15:03:30.880Z,68.10
2018-06-08T15:05:59.662Z,68.40
2018-06-08T15:08:29.124Z,69.90
2018-06-08T15:10:57.904Z,69.80
2018-06-08T15:13:25.938Z,70.00
2018-06-08T15:15:53.714Z,71.00
2018-06-08T15:18:21.891Z,71.70
2018-06-08T15:20:50.914Z,74.70
2018-06-08T15:23:19.368Z,75.20
2018-06-08T15:25:47.222Z,74.40
2018-06-08T15:28:15.233Z,76.60
2018-06-08T15:30:43.009Z,77.00
2018-06-08T15:33:10.889Z,77.30
2018-06-08T15:35:38.711Z,76.60
2018-06-08T15:38:06.716Z,77.00
2018-06-08T15:40:34.505Z,77.00
2018-06-08T15:43:02.537Z,77.50
2018-06-08T15:45:30.326Z,78.90
2018-06-08T15:47:58.212Z,78.10
2018-06-08T15:50:26.112Z,80.10
2018-06-08T15:52:54.179Z,80.40
2018-06-08T15:55:23.110Z,80.80
2018-06-08T15:57:50.940Z,81.70
2018-06-08T16:00:18.711Z,82.40
2018-06-08T16:02:47.106Z,81.90
2018-06-08T16:05:15.099Z,80.00
2018-06-08T16:07:43.107Z,80.00
2018-06-08T16:10:11.061Z,80.20
2018-06-08T16:12:39.466Z,81.00
2018-06-08T16:15:07.405Z,80.60
2018-06-08T16:17:35.269Z,81.30
2018-06-08T16:20:03.441Z,81.30
2018-06-08T16:22:31.291Z,81.70
2018-06-08T16:25:00.252Z,82.10
2018-06-08T16:27:28.085Z,82.20
2018-06-08T16:29:55.951Z,83.10
2018-06-08T16:32:23.719Z,82.30
2018-06-08T16:34:52.533Z,83.70
2018-06-08T16:37:20.366Z,83.20
2018-06-08T16:39:48.300Z,82.50
2018-06-08T16:42:16.118Z,83.40
2018-06-08T16:44:46.606Z,84.30
2018-06-08T16:47:15.836Z,85.80
2018-06-08T16:49:43.648Z,86.20
2018-06-08T16:52:11.588Z,86.00
2018-06-08T16:54:39.383Z,86.70
2018-06-08T16:57:08.406Z,86.40
2018-06-08T16:59:36.236Z,86.80
2018-06-08T17:02:04.136Z,86.80
2018-06-08T17:04:31.962Z,86.70
2018-06-08T17:06:59.842Z,87.00
2018-06-08T17:09:27.688Z,87.70
2018-06-08T17:11:55.554Z,87.00
2018-06-08T17:14:23.388Z,87.60
2018-06-08T17:16:51.185Z,88.10
2018-06-08T17:19:18.954Z,87.90
2018-06-08T17:21:46.830Z,87.70
2018-06-08T17:24:14.582Z,86.50
2018-06-08T17:26:43.567Z,87.50
2018-06-08T17:29:11.477Z,87.80
2018-06-08T17:31:40.294Z,89.00
2018-06-08T17:34:08.120Z,89.00
2018-06-08T17:36:37.049Z,88.80
2018-06-08T17:39:06.751Z,88.10
2018-06-08T17:41:34.701Z,87.20
2018-06-08T17:44:17.173Z,86.60
2018-06-08T17:46:45.045Z,86.00
2018-06-08T17:49:13.000Z,87.40
2018-06-08T17:51:41.171Z,86.10
2018-06-08T17:54:09.072Z,85.90
2018-06-08T17:56:37.118Z,86.20
2018-06-08T17:59:05.047Z,86.30
2018-06-08T18:01:33.087Z,87.10
2018-06-08T18:04:01.249Z,88.10
2018-06-08T18:06:29.117Z,89.20
2018-06-08T18:08:57.156Z,90.10
2018-06-08T18:11:25.028Z,90.40
2018-06-08T18:13:53.102Z,90.60
2018-06-08T18:16:21.032Z,90.60
2018-06-08T18:18:49.031Z,90.70
2018-06-08T18:21:16.898Z,90.70
2018-06-08T18:23:45.806Z,90.70
2018-06-08T18:26:13.915Z,90.70
2018-06-08T18:28:41.972Z,90.70
2018-06-08T18:31:09.857Z,91.00
2018-06-08T18:33:37.914Z,91.30
2018-06-08T18:36:05.851Z,91.50
2018-06-08T18:38:33.826Z,91.80
2018-06-08T18:41:01.865Z,91.90
2018-06-08T18:43:29.795Z,92.40
2018-06-08T18:45:57.677Z,92.20
2018-06-08T18:48:25.698Z,92.80
2018-06-08T18:50:53.593Z,92.60
2018-06-08T18:53:21.609Z,92.70
2018-06-08T18:58:23.912Z,93.00
2018-06-08T19:00:51.932Z,93.10
2018-06-08T19:03:20.155Z,93.00
2018-06-08T19:05:48.019Z,93.00
2018-06-08T19:08:16.007Z,93.10
2018-06-08T19:10:43.882Z,93.40
2018-06-08T19:13:11.934Z,93.40
2018-06-08T19:15:41.024Z,93.40
2018-06-08T19:18:09.065Z,93.50
2018-06-08T19:20:37.072Z,93.70
2018-06-08T19:23:06.074Z,93.80
2018-06-08T19:25:34.066Z,93.90
2018-06-08T19:28:02.690Z,94.10
2018-06-08T19:30:30.671Z,94.00
2018-06-08T19:32:58.736Z,94.10
2018-06-08T19:35:26.815Z,94.20
2018-06-08T19:37:54.688Z,94.20
2018-06-08T19:40:22.787Z,94.30
2018-06-08T19:45:18.686Z,99.90
2018-06-08T19:47:46.562Z,94.30
2018-06-08T19:50:15.953Z,94.30
2018-06-08T19:52:43.887Z,94.50
2018-06-08T19:55:12.833Z,94.80
2018-06-08T19:57:40.711Z,94.90
2018-06-08T20:00:08.896Z,95.00
2018-06-08T20:03:27.175Z,95.10
2018-06-08T20:05:55.109Z,95.20
2018-06-08T20:08:23.080Z,95.50
2018-06-08T20:10:51.037Z,95.70
2018-06-08T20:13:19.038Z,95.60
2018-06-08T20:15:47.016Z,95.60
2018-06-08T20:18:15.052Z,95.50
2018-06-08T20:20:42.998Z,95.70
2018-06-08T20:23:11.126Z,95.60
2018-06-08T20:25:38.989Z,95.80
2018-06-08T20:28:07.010Z,95.90
2018-06-08T20:30:36.584Z,96.00
2018-06-08T20:33:04.678Z,96.00
2018-06-08T20:35:32.641Z,96.30
2018-06-08T20:38:00.600Z,96.00
2018-06-08T20:40:28.575Z,96.00
2018-06-08T20:42:56.632Z,96.00
2018-06-08T20:45:24.606Z,96.30
2018-06-08T20:47:52.594Z,96.30
2018-06-08T20:50:20.512Z,96.20
2018-06-08T20:52:48.543Z,96.30
2018-06-08T20:55:16.517Z,96.30
2018-06-08T20:57:55.534Z,96.50
2018-06-08T21:00:23.441Z,96.50
2018-06-08T21:02:51.469Z,96.50
2018-06-08T21:07:44.699Z,96.50
2018-06-08T21:10:12.482Z,96.60
2018-06-08T21:12:40.324Z,96.50
2018-06-08T21:15:08.145Z,96.50
2018-06-08T21:17:35.965Z,96.60
2018-06-08T21:20:03.887Z,97.10
2018-06-08T21:22:33.728Z,96.90
2018-06-08T21:25:01.601Z,96.90
2018-06-08T21:27:29.431Z,97.00
2018-06-08T21:29:57.210Z,97.20
2018-06-08T21:32:28.784Z,97.30
2018-06-08T21:34:56.664Z,97.30
2018-06-08T21:37:24.504Z,97.30
2018-06-08T21:39:53.603Z,97.30
2018-06-08T21:42:21.536Z,97.20
2018-06-08T21:44:49.380Z,97.20
2018-06-08T21:47:17.265Z,97.30
2018-06-08T21:49:45.054Z,97.70
2018-06-08T21:52:12.959Z,97.70
2018-06-08T21:54:41.811Z,97.50
2018-06-08T21:57:10.495Z,97.70
2018-06-08T21:59:38.247Z,97.60
2018-06-08T22:02:07.740Z,97.60
2018-06-08T22:04:35.555Z,97.70
2018-06-08T22:07:03.338Z,97.70
2018-06-08T22:11:56.494Z,97.70
2018-06-08T22:14:24.303Z,97.70
2018-06-08T22:16:52.095Z,97.90
2018-06-08T22:19:19.913Z,97.80
2018-06-08T22:21:47.749Z,97.50
2018-06-08T22:24:15.615Z,97.80
2018-06-08T22:26:43.418Z,98.10
2018-06-08T22:29:11.275Z,98.20
2018-06-08T22:31:39.045Z,98.00
2018-06-08T22:34:06.870Z,98.00
2018-06-08T22:36:34.612Z,98.20
2018-06-08T22:39:02.606Z,98.00
2018-06-08T22:41:30.357Z,98.10
2018-06-08T22:43:58.139Z,98.30
2018-06-08T22:46:25.926Z,98.50
2018-06-08T22:48:53.660Z,98.50
2018-06-08T22:51:21.405Z,98.40
2018-06-08T22:53:49.165Z,98.40
2018-06-08T22:56:16.969Z,98.30
2018-06-08T22:58:45.000Z,98.60
2018-06-08T23:01:12.870Z,98.50
2018-06-08T23:03:40.601Z,98.60
2018-06-08T23:06:08.367Z,98.60
2018-06-08T23:08:36.122Z,98.40
2018-06-08T23:11:04.054Z,98.30
2018-06-08T23:15:57.192Z,98.50
2018-06-08T23:18:24.983Z,98.50
2018-06-08T23:20:52.721Z,98.70
2018-06-08T23:23:20.448Z,98.70
2018-06-08T23:25:48.149Z,98.70
2018-06-08T23:28:15.987Z,98.60
2018-06-08T23:30:43.749Z,98.70
2018-06-08T23:33:11.507Z,98.80
2018-06-08T23:35:39.260Z,98.80
2018-06-08T23:38:06.992Z,98.80
2018-06-08T23:40:47.540Z,98.60
2018-06-08T23:45:44.133Z,98.70
2018-06-08T23:48:11.892Z,98.70
2018-06-08T23:50:39.650Z,98.60
2018-06-08T23:53:07.393Z,98.60
2018-06-08T23:55:35.118Z,98.60
2018-06-08T23:58:02.959Z,98.60
